sensor_id;sensor_type;location;lat;lon;timestamp;P1;durP1;ratioP1;P2;durP2;ratioP2
77453;SDS011;66538;53.150;18.160;2023-03-14T00:01:25;8.60;;;4.20;;
77453;SDS011;66538;53.150;18.160;2023-03-14T00:03:52;8.00;;;3.70;;
77453;SDS011;66538;53.150;18.160;2023-03-14T00:06:19;8.20;;;3.70;;
77453;SDS011;66538;53.150;18.160;2023-03-14T00:08:46;7.50;;;3.80;;
77453;SDS011;66538;53.150;18.160;2023-03-14T00:11:14;7.60;;;3.60;;
77453;SDS011;66538;53.150;18.160;2023-03-14T00:13:43;8.30;;;4.10;;
77453;SDS011;66538;53.150;18.160;2023-03-14T00:16:13;8.20;;;3.80;;
77453;SDS011;66538;53.150;18.160;2023-03-14T00:18:40;6.70;;;3.00;;
77453;SDS011;66538;53.150;18.160;2023-03-14T00:21:07;8.60;;;4.30;;
77453;SDS011;66538;53.150;18.160;2023-03-14T00:26:07;7.20;;;3.20;;
77453;SDS011;66538;53.150;18.160;2023-03-14T00:28:36;8.30;;;3.70;;
77453;SDS011;66538;53.150;18.160;2023-03-14T00:31:04;7.90;;;3.60;;
77453;SDS011;66538;53.150;18.160;2023-03-14T00:33:34;7.10;;;3.40;;
77453;SDS011;66538;53.150;18.160;2023-03-14T00:36:04;6.80;;;2.70;;
77453;SDS011;66538;53.150;18.160;2023-03-14T00:38:35;7.80;;;3.80;;
77453;SDS011;66538;53.150;18.160;2023-03-14T00:41:03;7.60;;;3.90;;
77453;SDS011;66538;53.150;18.160;2023-03-14T00:43:30;6.50;;;3.20;;
77453;SDS011;66538;53.150;18.160;2023-03-14T00:45:57;5.90;;;3.20;;
77453;SDS011;66538;53.150;18.160;2023-03-14T00:48:26;8.20;;;3.40;;
77453;SDS011;66538;53.150;18.160;2023-03-14T00:50:53;8.60;;;3.30;;
77453;SDS011;66538;53.150;18.160;2023-03-14T00:53:20;7.70;;;3.10;;
77453;SDS011;66538;53.150;18.160;2023-03-14T00:55:46;7.60;;;3.50;;
77453;SDS011;66538;53.150;18.160;2023-03-14T00:58:14;8.80;;;3.70;;
77453;SDS011;66538;53.150;18.160;2023-03-14T01:00:43;7.50;;;3.40;;
77453;SDS011;66538;53.150;18.160;2023-03-14T01:03:11;7.70;;;2.80;;
77453;SDS011;66538;53.150;18.160;2023-03-14T01:05:39;7.40;;;3.70;;
77453;SDS011;66538;53.150;18.160;2023-03-14T01:08:06;6.10;;;2.90;;
77453;SDS011;66538;53.150;18.160;2023-03-14T01:10:38;7.00;;;3.00;;
77453;SDS011;66538;53.150;18.160;2023-03-14T01:13:06;6.70;;;2.80;;
77453;SDS011;66538;53.150;18.160;2023-03-14T01:15:36;5.80;;;2.30;;
77453;SDS011;66538;53.150;18.160;2023-03-14T01:18:03;5.10;;;2.20;;
77453;SDS011;66538;53.150;18.160;2023-03-14T01:20:30;5.20;;;2.30;;
77453;SDS011;66538;53.150;18.160;2023-03-14T01:22:57;4.70;;;2.40;;
77453;SDS011;66538;53.150;18.160;2023-03-14T01:25:24;5.00;;;2.30;;
77453;SDS011;66538;53.150;18.160;2023-03-14T01:27:51;5.30;;;2.40;;
77453;SDS011;66538;53.150;18.160;2023-03-14T01:30:18;4.50;;;2.10;;
77453;SDS011;66538;53.150;18.160;2023-03-14T01:32:45;5.50;;;2.30;;
77453;SDS011;66538;53.150;18.160;2023-03-14T01:35:11;6.30;;;2.30;;
77453;SDS011;66538;53.150;18.160;2023-03-14T01:37:38;4.80;;;2.20;;
77453;SDS011;66538;53.150;18.160;2023-03-14T01:40:07;5.60;;;2.30;;
77453;SDS011;66538;53.150;18.160;2023-03-14T01:42:36;4.40;;;1.40;;
77453;SDS011;66538;53.150;18.160;2023-03-14T01:45:03;6.90;;;2.10;;
77453;SDS011;66538;53.150;18.160;2023-03-14T01:47:30;5.40;;;1.90;;
77453;SDS011;66538;53.150;18.160;2023-03-14T01:50:04;5.10;;;2.10;;
77453;SDS011;66538;53.150;18.160;2023-03-14T01:52:39;5.20;;;2.30;;
77453;SDS011;66538;53.150;18.160;2023-03-14T01:55:14;4.50;;;2.40;;
77453;SDS011;66538;53.150;18.160;2023-03-14T01:57:44;4.90;;;2.30;;
77453;SDS011;66538;53.150;18.160;2023-03-14T02:00:18;6.60;;;2.30;;
77453;SDS011;66538;53.150;18.160;2023-03-14T02:02:48;6.10;;;2.30;;
77453;SDS011;66538;53.150;18.160;2023-03-14T02:05:32;4.10;;;1.80;;
77453;SDS011;66538;53.150;18.160;2023-03-14T02:08:05;5.00;;;2.00;;
77453;SDS011;66538;53.150;18.160;2023-03-14T02:10:43;4.80;;;2.20;;
77453;SDS011;66538;53.150;18.160;2023-03-14T02:13:12;5.20;;;1.80;;
77453;SDS011;66538;53.150;18.160;2023-03-14T02:15:52;4.40;;;1.80;;
77453;SDS011;66538;53.150;18.160;2023-03-14T02:18:42;5.20;;;1.90;;
77453;SDS011;66538;53.150;18.160;2023-03-14T02:27:10;4.80;;;2.40;;
77453;SDS011;66538;53.150;18.160;2023-03-14T02:30:05;5.40;;;2.00;;
77453;SDS011;66538;53.150;18.160;2023-03-14T02:32:31;4.10;;;1.90;;
77453;SDS011;66538;53.150;18.160;2023-03-14T02:35:03;4.00;;;1.90;;
77453;SDS011;66538;53.150;18.160;2023-03-14T02:37:35;3.50;;;1.40;;
77453;SDS011;66538;53.150;18.160;2023-03-14T02:40:08;3.30;;;1.60;;
77453;SDS011;66538;53.150;18.160;2023-03-14T02:42:35;4.70;;;1.20;;
77453;SDS011;66538;53.150;18.160;2023-03-14T02:47:37;4.00;;;1.60;;
77453;SDS011;66538;53.150;18.160;2023-03-14T02:50:13;3.80;;;1.60;;
77453;SDS011;66538;53.150;18.160;2023-03-14T02:52:44;3.50;;;1.30;;
77453;SDS011;66538;53.150;18.160;2023-03-14T02:55:11;3.80;;;1.50;;
77453;SDS011;66538;53.150;18.160;2023-03-14T02:57:39;3.50;;;1.10;;
77453;SDS011;66538;53.150;18.160;2023-03-14T03:00:06;3.50;;;1.30;;
77453;SDS011;66538;53.150;18.160;2023-03-14T03:02:35;3.20;;;1.20;;
77453;SDS011;66538;53.150;18.160;2023-03-14T03:05:02;3.20;;;1.40;;
77453;SDS011;66538;53.150;18.160;2023-03-14T03:07:29;3.80;;;1.40;;
77453;SDS011;66538;53.150;18.160;2023-03-14T03:09:56;3.70;;;1.20;;
77453;SDS011;66538;53.150;18.160;2023-03-14T03:12:23;4.10;;;1.20;;
77453;SDS011;66538;53.150;18.160;2023-03-14T03:14:50;2.90;;;0.90;;
77453;SDS011;66538;53.150;18.160;2023-03-14T03:17:16;3.00;;;1.00;;
77453;SDS011;66538;53.150;18.160;2023-03-14T03:19:44;4.00;;;1.00;;
77453;SDS011;66538;53.150;18.160;2023-03-14T03:22:10;2.30;;;0.90;;
77453;SDS011;66538;53.150;18.160;2023-03-14T03:24:40;3.00;;;1.00;;
77453;SDS011;66538;53.150;18.160;2023-03-14T03:27:07;3.00;;;1.00;;
77453;SDS011;66538;53.150;18.160;2023-03-14T03:29:34;2.30;;;0.90;;
77453;SDS011;66538;53.150;18.160;2023-03-14T03:32:01;3.40;;;1.10;;
77453;SDS011;66538;53.150;18.160;2023-03-14T03:34:27;4.20;;;1.50;;
77453;SDS011;66538;53.150;18.160;2023-03-14T03:36:58;4.80;;;1.50;;
77453;SDS011;66538;53.150;18.160;2023-03-14T03:39:25;3.10;;;1.20;;
77453;SDS011;66538;53.150;18.160;2023-03-14T03:41:52;3.20;;;1.10;;
77453;SDS011;66538;53.150;18.160;2023-03-14T03:44:19;3.20;;;1.20;;
77453;SDS011;66538;53.150;18.160;2023-03-14T03:46:46;3.30;;;1.30;;
77453;SDS011;66538;53.150;18.160;2023-03-14T03:49:12;2.80;;;0.90;;
77453;SDS011;66538;53.150;18.160;2023-03-14T03:51:39;2.50;;;0.90;;
77453;SDS011;66538;53.150;18.160;2023-03-14T03:54:07;3.60;;;1.40;;
77453;SDS011;66538;53.150;18.160;2023-03-14T03:56:33;4.40;;;1.70;;
77453;SDS011;66538;53.150;18.160;2023-03-14T03:59:00;3.80;;;1.40;;
77453;SDS011;66538;53.150;18.160;2023-03-14T04:01:27;6.40;;;2.50;;
77453;SDS011;66538;53.150;18.160;2023-03-14T04:03:53;5.20;;;2.50;;
77453;SDS011;66538;53.150;18.160;2023-03-14T04:06:20;4.20;;;1.80;;
77453;SDS011;66538;53.150;18.160;2023-03-14T04:08:49;10.40;;;2.80;;
77453;SDS011;66538;53.150;18.160;2023-03-14T04:11:35;5.60;;;2.10;;
77453;SDS011;66538;53.150;18.160;2023-03-14T04:14:21;5.60;;;1.90;;
77453;SDS011;66538;53.150;18.160;2023-03-14T04:19:22;8.80;;;2.50;;
77453;SDS011;66538;53.150;18.160;2023-03-14T04:21:50;10.60;;;3.40;;
77453;SDS011;66538;53.150;18.160;2023-03-14T04:24:18;7.60;;;2.10;;
77453;SDS011;66538;53.150;18.160;2023-03-14T04:26:48;5.10;;;2.20;;
77453;SDS011;66538;53.150;18.160;2023-03-14T04:29:14;8.60;;;2.70;;
77453;SDS011;66538;53.150;18.160;2023-03-14T04:31:43;7.60;;;2.60;;
77453;SDS011;66538;53.150;18.160;2023-03-14T04:34:10;6.10;;;2.10;;
77453;SDS011;66538;53.150;18.160;2023-03-14T04:36:43;10.50;;;3.00;;
77453;SDS011;66538;53.150;18.160;2023-03-14T04:39:14;13.10;;;4.90;;
77453;SDS011;66538;53.150;18.160;2023-03-14T04:41:48;15.00;;;5.60;;
77453;SDS011;66538;53.150;18.160;2023-03-14T04:44:15;10.80;;;3.90;;
77453;SDS011;66538;53.150;18.160;2023-03-14T04:46:42;10.60;;;3.80;;
77453;SDS011;66538;53.150;18.160;2023-03-14T04:49:08;5.90;;;1.90;;
77453;SDS011;66538;53.150;18.160;2023-03-14T04:51:35;7.00;;;2.50;;
77453;SDS011;66538;53.150;18.160;2023-03-14T04:54:02;8.40;;;2.50;;
77453;SDS011;66538;53.150;18.160;2023-03-14T04:56:29;6.40;;;1.90;;
77453;SDS011;66538;53.150;18.160;2023-03-14T04:58:56;7.10;;;2.20;;
77453;SDS011;66538;53.150;18.160;2023-03-14T05:01:23;9.20;;;2.30;;
77453;SDS011;66538;53.150;18.160;2023-03-14T05:04:01;6.40;;;2.10;;
77453;SDS011;66538;53.150;18.160;2023-03-14T05:06:38;7.90;;;2.20;;
77453;SDS011;66538;53.150;18.160;2023-03-14T05:09:21;10.70;;;3.10;;
77453;SDS011;66538;53.150;18.160;2023-03-14T05:12:08;5.20;;;2.00;;
77453;SDS011;66538;53.150;18.160;2023-03-14T05:14:57;4.70;;;1.80;;
77453;SDS011;66538;53.150;18.160;2023-03-14T05:17:56;5.50;;;1.80;;
77453;SDS011;66538;53.150;18.160;2023-03-14T05:20:36;3.90;;;1.70;;
77453;SDS011;66538;53.150;18.160;2023-03-14T05:23:35;3.30;;;1.50;;
77453;SDS011;66538;53.150;18.160;2023-03-14T05:26:13;4.10;;;1.70;;
77453;SDS011;66538;53.150;18.160;2023-03-14T05:29:09;16.40;;;6.90;;
77453;SDS011;66538;53.150;18.160;2023-03-14T05:31:55;25.40;;;10.20;;
77453;SDS011;66538;53.150;18.160;2023-03-14T05:34:36;28.50;;;10.70;;
77453;SDS011;66538;53.150;18.160;2023-03-14T05:37:32;18.70;;;7.50;;
77453;SDS011;66538;53.150;18.160;2023-03-14T05:40:30;14.20;;;7.00;;
77453;SDS011;66538;53.150;18.160;2023-03-14T05:43:22;25.50;;;9.70;;
77453;SDS011;66538;53.150;18.160;2023-03-14T05:45:49;14.40;;;6.40;;
77453;SDS011;66538;53.150;18.160;2023-03-14T05:48:28;26.40;;;12.10;;
77453;SDS011;66538;53.150;18.160;2023-03-14T05:51:13;9.40;;;4.00;;
77453;SDS011;66538;53.150;18.160;2023-03-14T05:54:04;11.20;;;4.70;;
77453;SDS011;66538;53.150;18.160;2023-03-14T05:56:41;14.10;;;7.40;;
77453;SDS011;66538;53.150;18.160;2023-03-14T05:59:14;16.40;;;7.90;;
77453;SDS011;66538;53.150;18.160;2023-03-14T06:01:59;8.80;;;3.90;;
77453;SDS011;66538;53.150;18.160;2023-03-14T06:04:27;10.80;;;4.40;;
77453;SDS011;66538;53.150;18.160;2023-03-14T06:06:56;11.40;;;4.30;;
77453;SDS011;66538;53.150;18.160;2023-03-14T06:09:23;16.90;;;7.30;;
77453;SDS011;66538;53.150;18.160;2023-03-14T06:11:51;15.30;;;6.60;;
77453;SDS011;66538;53.150;18.160;2023-03-14T06:14:17;14.20;;;6.30;;
77453;SDS011;66538;53.150;18.160;2023-03-14T06:16:45;12.60;;;6.30;;
77453;SDS011;66538;53.150;18.160;2023-03-14T06:19:14;8.70;;;4.00;;
77453;SDS011;66538;53.150;18.160;2023-03-14T06:21:41;11.20;;;5.30;;
77453;SDS011;66538;53.150;18.160;2023-03-14T06:24:08;10.40;;;5.40;;
77453;SDS011;66538;53.150;18.160;2023-03-14T06:26:40;25.20;;;10.70;;
77453;SDS011;66538;53.150;18.160;2023-03-14T06:29:07;21.20;;;8.50;;
77453;SDS011;66538;53.150;18.160;2023-03-14T06:31:34;21.90;;;8.70;;
77453;SDS011;66538;53.150;18.160;2023-03-14T06:34:03;19.00;;;8.30;;
77453;SDS011;66538;53.150;18.160;2023-03-14T06:36:31;8.70;;;4.70;;
77453;SDS011;66538;53.150;18.160;2023-03-14T06:38:58;19.00;;;8.40;;
77453;SDS011;66538;53.150;18.160;2023-03-14T06:41:25;16.10;;;8.40;;
77453;SDS011;66538;53.150;18.160;2023-03-14T06:43:52;18.80;;;8.40;;
77453;SDS011;66538;53.150;18.160;2023-03-14T06:46:20;10.50;;;5.00;;
77453;SDS011;66538;53.150;18.160;2023-03-14T06:48:46;13.70;;;5.00;;
77453;SDS011;66538;53.150;18.160;2023-03-14T06:51:13;10.80;;;4.80;;
77453;SDS011;66538;53.150;18.160;2023-03-14T06:53:40;11.80;;;5.60;;
77453;SDS011;66538;53.150;18.160;2023-03-14T06:56:07;8.40;;;3.90;;
77453;SDS011;66538;53.150;18.160;2023-03-14T06:58:34;9.70;;;4.80;;
77453;SDS011;66538;53.150;18.160;2023-03-14T07:01:02;8.60;;;4.30;;
77453;SDS011;66538;53.150;18.160;2023-03-14T07:03:33;10.70;;;4.60;;
77453;SDS011;66538;53.150;18.160;2023-03-14T07:06:00;17.30;;;7.40;;
77453;SDS011;66538;53.150;18.160;2023-03-14T07:08:27;12.30;;;5.00;;
77453;SDS011;66538;53.150;18.160;2023-03-14T07:10:55;11.30;;;5.10;;
77453;SDS011;66538;53.150;18.160;2023-03-14T07:13:23;13.30;;;5.20;;
77453;SDS011;66538;53.150;18.160;2023-03-14T07:15:55;9.90;;;5.60;;
77453;SDS011;66538;53.150;18.160;2023-03-14T07:18:21;9.50;;;4.70;;
77453;SDS011;66538;53.150;18.160;2023-03-14T07:20:48;7.10;;;3.30;;
77453;SDS011;66538;53.150;18.160;2023-03-14T07:23:14;11.20;;;6.60;;
77453;SDS011;66538;53.150;18.160;2023-03-14T07:25:46;9.50;;;5.50;;
77453;SDS011;66538;53.150;18.160;2023-03-14T07:28:13;11.00;;;6.30;;
77453;SDS011;66538;53.150;18.160;2023-03-14T07:30:41;9.10;;;6.60;;
77453;SDS011;66538;53.150;18.160;2023-03-14T07:33:15;7.60;;;4.00;;
77453;SDS011;66538;53.150;18.160;2023-03-14T07:35:42;8.20;;;4.30;;
77453;SDS011;66538;53.150;18.160;2023-03-14T07:38:09;7.20;;;3.70;;
77453;SDS011;66538;53.150;18.160;2023-03-14T07:40:39;9.50;;;5.90;;
77453;SDS011;66538;53.150;18.160;2023-03-14T07:43:06;10.20;;;7.00;;
77453;SDS011;66538;53.150;18.160;2023-03-14T07:45:47;11.90;;;8.50;;
77453;SDS011;66538;53.150;18.160;2023-03-14T07:48:13;13.20;;;7.40;;
77453;SDS011;66538;53.150;18.160;2023-03-14T07:50:40;11.30;;;5.60;;
77453;SDS011;66538;53.150;18.160;2023-03-14T07:53:06;10.50;;;5.30;;
77453;SDS011;66538;53.150;18.160;2023-03-14T07:55:33;10.00;;;5.40;;
77453;SDS011;66538;53.150;18.160;2023-03-14T07:58:00;11.80;;;7.20;;
77453;SDS011;66538;53.150;18.160;2023-03-14T08:00:27;22.00;;;15.00;;
77453;SDS011;66538;53.150;18.160;2023-03-14T08:02:54;17.50;;;13.00;;
77453;SDS011;66538;53.150;18.160;2023-03-14T08:05:21;11.40;;;6.90;;
77453;SDS011;66538;53.150;18.160;2023-03-14T08:07:48;6.20;;;3.30;;
77453;SDS011;66538;53.150;18.160;2023-03-14T08:10:14;7.90;;;4.30;;
77453;SDS011;66538;53.150;18.160;2023-03-14T08:12:51;10.60;;;5.10;;
77453;SDS011;66538;53.150;18.160;2023-03-14T08:15:21;9.30;;;5.50;;
77453;SDS011;66538;53.150;18.160;2023-03-14T08:17:49;10.80;;;4.90;;
77453;SDS011;66538;53.150;18.160;2023-03-14T08:20:17;9.90;;;4.40;;
77453;SDS011;66538;53.150;18.160;2023-03-14T08:22:44;11.50;;;5.50;;
77453;SDS011;66538;53.150;18.160;2023-03-14T08:25:11;7.50;;;3.80;;
77453;SDS011;66538;53.150;18.160;2023-03-14T08:27:37;6.60;;;2.80;;
77453;SDS011;66538;53.150;18.160;2023-03-14T08:30:05;13.30;;;5.80;;
77453;SDS011;66538;53.150;18.160;2023-03-14T08:32:34;12.40;;;5.60;;
77453;SDS011;66538;53.150;18.160;2023-03-14T08:35:01;8.90;;;4.40;;
77453;SDS011;66538;53.150;18.160;2023-03-14T08:37:28;7.50;;;3.80;;
77453;SDS011;66538;53.150;18.160;2023-03-14T08:39:55;5.80;;;3.10;;
77453;SDS011;66538;53.150;18.160;2023-03-14T08:42:21;6.30;;;4.00;;
77453;SDS011;66538;53.150;18.160;2023-03-14T08:44:48;5.90;;;3.70;;
77453;SDS011;66538;53.150;18.160;2023-03-14T08:47:15;4.80;;;2.60;;
77453;SDS011;66538;53.150;18.160;2023-03-14T08:49:41;4.70;;;2.10;;
77453;SDS011;66538;53.150;18.160;2023-03-14T08:52:08;6.60;;;3.20;;
77453;SDS011;66538;53.150;18.160;2023-03-14T08:54:35;6.00;;;2.50;;
77453;SDS011;66538;53.150;18.160;2023-03-14T08:57:01;6.90;;;2.60;;
77453;SDS011;66538;53.150;18.160;2023-03-14T08:59:28;6.30;;;3.20;;
77453;SDS011;66538;53.150;18.160;2023-03-14T09:01:55;5.40;;;3.00;;
77453;SDS011;66538;53.150;18.160;2023-03-14T09:04:22;8.00;;;3.90;;
77453;SDS011;66538;53.150;18.160;2023-03-14T09:06:48;9.30;;;4.20;;
77453;SDS011;66538;53.150;18.160;2023-03-14T09:09:15;6.50;;;3.80;;
77453;SDS011;66538;53.150;18.160;2023-03-14T09:11:41;6.90;;;2.70;;
77453;SDS011;66538;53.150;18.160;2023-03-14T09:14:08;7.40;;;3.50;;
77453;SDS011;66538;53.150;18.160;2023-03-14T09:16:35;7.50;;;3.80;;
77453;SDS011;66538;53.150;18.160;2023-03-14T09:19:01;4.70;;;2.10;;
77453;SDS011;66538;53.150;18.160;2023-03-14T09:21:28;5.90;;;2.60;;
77453;SDS011;66538;53.150;18.160;2023-03-14T09:23:55;8.60;;;2.90;;
77453;SDS011;66538;53.150;18.160;2023-03-14T09:26:21;6.90;;;2.90;;
77453;SDS011;66538;53.150;18.160;2023-03-14T09:28:48;4.70;;;2.30;;
77453;SDS011;66538;53.150;18.160;2023-03-14T09:31:15;6.20;;;2.60;;
77453;SDS011;66538;53.150;18.160;2023-03-14T09:33:42;7.00;;;3.30;;
77453;SDS011;66538;53.150;18.160;2023-03-14T09:36:09;5.20;;;2.30;;
77453;SDS011;66538;53.150;18.160;2023-03-14T09:38:36;6.90;;;3.90;;
77453;SDS011;66538;53.150;18.160;2023-03-14T09:41:06;5.90;;;2.40;;
77453;SDS011;66538;53.150;18.160;2023-03-14T09:43:40;6.40;;;3.30;;
77453;SDS011;66538;53.150;18.160;2023-03-14T09:46:09;8.00;;;4.20;;
77453;SDS011;66538;53.150;18.160;2023-03-14T09:48:37;6.50;;;2.60;;
77453;SDS011;66538;53.150;18.160;2023-03-14T09:51:06;7.40;;;3.30;;
77453;SDS011;66538;53.150;18.160;2023-03-14T09:53:41;6.80;;;3.50;;
77453;SDS011;66538;53.150;18.160;2023-03-14T09:56:12;6.70;;;2.80;;
77453;SDS011;66538;53.150;18.160;2023-03-14T09:58:43;6.80;;;3.10;;
77453;SDS011;66538;53.150;18.160;2023-03-14T10:01:15;8.60;;;3.20;;
77453;SDS011;66538;53.150;18.160;2023-03-14T10:03:46;6.70;;;2.50;;
77453;SDS011;66538;53.150;18.160;2023-03-14T10:06:14;4.10;;;2.30;;
77453;SDS011;66538;53.150;18.160;2023-03-14T10:08:41;7.60;;;3.10;;
77453;SDS011;66538;53.150;18.160;2023-03-14T10:11:12;5.00;;;2.40;;
77453;SDS011;66538;53.150;18.160;2023-03-14T10:13:49;3.50;;;1.60;;
77453;SDS011;66538;53.150;18.160;2023-03-14T10:16:30;6.30;;;2.50;;
77453;SDS011;66538;53.150;18.160;2023-03-14T10:19:03;5.40;;;2.60;;
77453;SDS011;66538;53.150;18.160;2023-03-14T10:21:39;7.20;;;2.70;;
77453;SDS011;66538;53.150;18.160;2023-03-14T10:24:09;8.80;;;3.70;;
77453;SDS011;66538;53.150;18.160;2023-03-14T10:26:53;10.40;;;3.10;;
77453;SDS011;66538;53.150;18.160;2023-03-14T10:29:32;7.90;;;2.80;;
77453;SDS011;66538;53.150;18.160;2023-03-14T10:32:04;4.90;;;1.80;;
77453;SDS011;66538;53.150;18.160;2023-03-14T10:34:35;5.90;;;2.40;;
77453;SDS011;66538;53.150;18.160;2023-03-14T10:37:22;5.70;;;1.80;;
77453;SDS011;66538;53.150;18.160;2023-03-14T10:39:52;5.60;;;2.00;;
77453;SDS011;66538;53.150;18.160;2023-03-14T10:42:28;6.00;;;2.50;;
77453;SDS011;66538;53.150;18.160;2023-03-14T10:45:02;8.10;;;2.30;;
77453;SDS011;66538;53.150;18.160;2023-03-14T10:47:32;5.80;;;2.20;;
77453;SDS011;66538;53.150;18.160;2023-03-14T10:52:55;6.00;;;2.40;;
77453;SDS011;66538;53.150;18.160;2023-03-14T10:55:24;5.50;;;1.90;;
77453;SDS011;66538;53.150;18.160;2023-03-14T10:57:52;5.00;;;2.10;;
77453;SDS011;66538;53.150;18.160;2023-03-14T11:00:22;5.60;;;2.20;;
77453;SDS011;66538;53.150;18.160;2023-03-14T11:02:54;3.60;;;1.60;;
77453;SDS011;66538;53.150;18.160;2023-03-14T11:08:35;5.10;;;2.00;;
77453;SDS011;66538;53.150;18.160;2023-03-14T11:11:18;4.00;;;1.70;;
77453;SDS011;66538;53.150;18.160;2023-03-14T11:25:36;4.80;;;1.80;;
77453;SDS011;66538;53.150;18.160;2023-03-14T11:28:27;8.00;;;2.70;;
77453;SDS011;66538;53.150;18.160;2023-03-14T11:34:04;10.10;;;2.30;;
77453;SDS011;66538;53.150;18.160;2023-03-14T11:36:41;3.70;;;1.40;;
77453;SDS011;66538;53.150;18.160;2023-03-14T11:39:16;5.30;;;1.60;;
77453;SDS011;66538;53.150;18.160;2023-03-14T11:42:02;8.00;;;3.20;;
77453;SDS011;66538;53.150;18.160;2023-03-14T11:44:48;6.20;;;2.10;;
77453;SDS011;66538;53.150;18.160;2023-03-14T11:47:32;6.00;;;2.20;;
77453;SDS011;66538;53.150;18.160;2023-03-14T11:50:21;7.50;;;2.80;;
77453;SDS011;66538;53.150;18.160;2023-03-14T11:55:26;5.30;;;2.20;;
77453;SDS011;66538;53.150;18.160;2023-03-14T11:58:09;6.50;;;2.70;;
77453;SDS011;66538;53.150;18.160;2023-03-14T12:00:38;8.20;;;3.50;;
77453;SDS011;66538;53.150;18.160;2023-03-14T12:08:55;7.10;;;3.10;;
77453;SDS011;66538;53.150;18.160;2023-03-14T12:14:00;6.30;;;3.20;;
77453;SDS011;66538;53.150;18.160;2023-03-14T12:16:32;5.10;;;1.80;;
77453;SDS011;66538;53.150;18.160;2023-03-14T12:21:48;6.80;;;2.40;;
77453;SDS011;66538;53.150;18.160;2023-03-14T12:24:40;5.40;;;2.20;;
77453;SDS011;66538;53.150;18.160;2023-03-14T12:27:13;13.60;;;6.10;;
77453;SDS011;66538;53.150;18.160;2023-03-14T12:30:32;6.70;;;2.60;;
77453;SDS011;66538;53.150;18.160;2023-03-14T12:35:39;6.10;;;2.00;;
77453;SDS011;66538;53.150;18.160;2023-03-14T12:38:56;6.20;;;1.90;;
77453;SDS011;66538;53.150;18.160;2023-03-14T12:43:48;7.60;;;2.70;;
77453;SDS011;66538;53.150;18.160;2023-03-14T12:46:19;4.30;;;2.00;;
77453;SDS011;66538;53.150;18.160;2023-03-14T12:48:49;5.60;;;1.90;;
77453;SDS011;66538;53.150;18.160;2023-03-14T12:51:42;8.60;;;2.30;;
77453;SDS011;66538;53.150;18.160;2023-03-14T12:54:29;5.60;;;2.70;;
77453;SDS011;66538;53.150;18.160;2023-03-14T12:57:36;6.20;;;3.20;;
77453;SDS011;66538;53.150;18.160;2023-03-14T13:00:16;5.60;;;2.80;;
77453;SDS011;66538;53.150;18.160;2023-03-14T13:02:44;7.10;;;2.80;;
77453;SDS011;66538;53.150;18.160;2023-03-14T13:05:16;7.20;;;2.70;;
77453;SDS011;66538;53.150;18.160;2023-03-14T13:10:27;5.60;;;3.30;;
77453;SDS011;66538;53.150;18.160;2023-03-14T13:15:54;8.40;;;4.70;;
77453;SDS011;66538;53.150;18.160;2023-03-14T13:18:39;10.30;;;4.20;;
77453;SDS011;66538;53.150;18.160;2023-03-14T13:21:17;6.50;;;2.50;;
77453;SDS011;66538;53.150;18.160;2023-03-14T13:23:59;5.60;;;1.70;;
77453;SDS011;66538;53.150;18.160;2023-03-14T13:26:35;7.00;;;3.10;;
77453;SDS011;66538;53.150;18.160;2023-03-14T13:29:19;7.00;;;2.00;;
77453;SDS011;66538;53.150;18.160;2023-03-14T13:31:50;5.30;;;1.80;;
77453;SDS011;66538;53.150;18.160;2023-03-14T13:34:25;6.20;;;1.70;;
77453;SDS011;66538;53.150;18.160;2023-03-14T13:39:20;4.70;;;2.50;;
77453;SDS011;66538;53.150;18.160;2023-03-14T13:41:54;6.30;;;2.60;;
77453;SDS011;66538;53.150;18.160;2023-03-14T13:44:28;6.20;;;2.60;;
77453;SDS011;66538;53.150;18.160;2023-03-14T13:47:01;5.90;;;3.10;;
77453;SDS011;66538;53.150;18.160;2023-03-14T13:49:30;11.50;;;4.60;;
77453;SDS011;66538;53.150;18.160;2023-03-14T13:52:02;5.90;;;2.80;;
77453;SDS011;66538;53.150;18.160;2023-03-14T13:54:30;7.10;;;3.60;;
77453;SDS011;66538;53.150;18.160;2023-03-14T13:57:01;6.50;;;3.20;;
77453;SDS011;66538;53.150;18.160;2023-03-14T13:59:31;5.60;;;2.40;;
77453;SDS011;66538;53.150;18.160;2023-03-14T14:02:01;8.60;;;3.70;;
77453;SDS011;66538;53.150;18.160;2023-03-14T14:04:38;4.80;;;3.20;;
77453;SDS011;66538;53.150;18.160;2023-03-14T14:07:08;6.80;;;2.70;;
77453;SDS011;66538;53.150;18.160;2023-03-14T14:09:43;5.50;;;2.90;;
77453;SDS011;66538;53.150;18.160;2023-03-14T14:12:19;6.20;;;2.30;;
77453;SDS011;66538;53.150;18.160;2023-03-14T14:17:32;5.50;;;2.10;;
77453;SDS011;66538;53.150;18.160;2023-03-14T14:20:04;4.10;;;1.90;;
77453;SDS011;66538;53.150;18.160;2023-03-14T14:22:34;6.10;;;2.70;;
77453;SDS011;66538;53.150;18.160;2023-03-14T14:25:02;5.30;;;2.50;;
77453;SDS011;66538;53.150;18.160;2023-03-14T14:27:35;6.70;;;2.90;;
77453;SDS011;66538;53.150;18.160;2023-03-14T14:32:48;6.50;;;2.90;;
77453;SDS011;66538;53.150;18.160;2023-03-14T14:35:30;5.30;;;2.20;;
77453;SDS011;66538;53.150;18.160;2023-03-14T14:37:59;5.70;;;3.00;;
77453;SDS011;66538;53.150;18.160;2023-03-14T14:40:30;5.90;;;2.30;;
77453;SDS011;66538;53.150;18.160;2023-03-14T14:43:04;6.40;;;3.20;;
77453;SDS011;66538;53.150;18.160;2023-03-14T14:45:33;7.70;;;3.70;;
77453;SDS011;66538;53.150;18.160;2023-03-14T14:50:28;12.20;;;5.40;;
77453;SDS011;66538;53.150;18.160;2023-03-14T14:53:01;14.70;;;6.10;;
77453;SDS011;66538;53.150;18.160;2023-03-14T14:55:45;16.80;;;7.90;;
77453;SDS011;66538;53.150;18.160;2023-03-14T14:58:20;9.80;;;5.40;;
77453;SDS011;66538;53.150;18.160;2023-03-14T15:00:56;7.10;;;4.40;;
77453;SDS011;66538;53.150;18.160;2023-03-14T15:03:26;12.80;;;6.20;;
77453;SDS011;66538;53.150;18.160;2023-03-14T15:05:54;9.20;;;4.20;;
77453;SDS011;66538;53.150;18.160;2023-03-14T15:08:22;7.90;;;3.50;;
77453;SDS011;66538;53.150;18.160;2023-03-14T15:10:50;6.90;;;3.10;;
77453;SDS011;66538;53.150;18.160;2023-03-14T15:13:16;9.10;;;3.30;;
77453;SDS011;66538;53.150;18.160;2023-03-14T15:15:43;8.30;;;3.40;;
77453;SDS011;66538;53.150;18.160;2023-03-14T15:18:14;5.90;;;2.50;;
77453;SDS011;66538;53.150;18.160;2023-03-14T15:20:44;4.80;;;1.90;;
77453;SDS011;66538;53.150;18.160;2023-03-14T15:23:12;7.20;;;2.20;;
77453;SDS011;66538;53.150;18.160;2023-03-14T15:25:40;5.40;;;1.60;;
77453;SDS011;66538;53.150;18.160;2023-03-14T15:28:19;4.30;;;1.40;;
77453;SDS011;66538;53.150;18.160;2023-03-14T15:30:51;5.70;;;1.90;;
77453;SDS011;66538;53.150;18.160;2023-03-14T15:33:20;6.70;;;2.20;;
77453;SDS011;66538;53.150;18.160;2023-03-14T15:35:48;8.60;;;4.00;;
77453;SDS011;66538;53.150;18.160;2023-03-14T15:38:16;10.70;;;4.50;;
77453;SDS011;66538;53.150;18.160;2023-03-14T15:40:47;10.90;;;4.90;;
77453;SDS011;66538;53.150;18.160;2023-03-14T15:43:14;12.70;;;6.80;;
77453;SDS011;66538;53.150;18.160;2023-03-14T15:45:40;9.60;;;4.40;;
77453;SDS011;66538;53.150;18.160;2023-03-14T15:48:12;10.00;;;4.40;;
77453;SDS011;66538;53.150;18.160;2023-03-14T15:50:42;10.60;;;4.80;;
77453;SDS011;66538;53.150;18.160;2023-03-14T15:53:09;11.10;;;5.70;;
77453;SDS011;66538;53.150;18.160;2023-03-14T15:55:36;17.20;;;8.20;;
77453;SDS011;66538;53.150;18.160;2023-03-14T15:58:03;15.90;;;8.10;;
77453;SDS011;66538;53.150;18.160;2023-03-14T16:00:30;13.70;;;7.60;;
77453;SDS011;66538;53.150;18.160;2023-03-14T16:02:57;9.80;;;5.20;;
77453;SDS011;66538;53.150;18.160;2023-03-14T16:05:24;10.20;;;5.30;;